createdAt,value
2022-10-05T00:01:52.907Z,98411.00
2022-10-05T00:04:24.097Z,98411.00
2022-10-05T00:07:17.427Z,98412.47
2022-10-05T00:09:59.002Z,98416.69
2022-10-05T00:12:28.269Z,98417.31
2022-10-05T00:15:01.396Z,98417.72
2022-10-05T00:17:30.338Z,98428.94
2022-10-05T00:19:57.101Z,98432.91
2022-10-05T00:22:29.780Z,98441.50
2022-10-05T00:24:58.910Z,98428.09
2022-10-05T00:27:31.469Z,98431.13
2022-10-05T00:29:59.209Z,98429.75
2022-10-05T00:32:26.036Z,98424.19
2022-10-05T00:34:52.632Z,98426.41
2022-10-05T00:37:19.271Z,98421.25
2022-10-05T00:39:46.416Z,98426.28
2022-10-05T00:42:50.341Z,98431.00
2022-10-05T00:45:27.435Z,98421.72
2022-10-05T00:48:42.000Z,98416.25
2022-10-05T00:51:30.959Z,98416.25
2022-10-05T00:54:41.781Z,98416.56
2022-10-05T00:57:38.050Z,98413.72
2022-10-05T01:00:08.643Z,98406.53
2022-10-05T01:02:58.366Z,98408.19
2022-10-05T01:05:46.770Z,98411.44
2022-10-05T01:08:47.491Z,98409.75
2022-10-05T01:11:50.890Z,98404.63
2022-10-05T01:20:51.523Z,98398.81
2022-10-05T01:27:08.813Z,98376.09
2022-10-05T01:29:51.888Z,98370.44
2022-10-05T01:32:44.435Z,98355.25
2022-10-05T01:36:08.010Z,98348.06
2022-10-05T01:38:57.212Z,98346.06
2022-10-05T01:44:56.548Z,98336.81
2022-10-05T01:47:43.952Z,98339.66
2022-10-05T01:50:49.651Z,98334.72
2022-10-05T01:53:37.943Z,98329.50
2022-10-05T01:56:23.175Z,98325.53
2022-10-05T02:02:14.589Z,98315.81
2022-10-05T02:05:01.883Z,98314.63
2022-10-05T02:07:45.601Z,98304.38
2022-10-05T02:10:23.988Z,98312.13
2022-10-05T02:12:57.350Z,98308.66
2022-10-05T02:15:33.324Z,98302.50
2022-10-05T02:18:06.821Z,98298.94
2022-10-05T02:20:37.378Z,98298.72
2022-10-05T02:23:09.402Z,98295.78
2022-10-05T02:25:39.778Z,98295.56
2022-10-05T02:28:12.540Z,98294.91
2022-10-05T02:30:47.712Z,98296.09
2022-10-05T02:33:30.741Z,98294.19
2022-10-05T02:36:07.764Z,98286.97
2022-10-05T02:38:54.529Z,98284.78
2022-10-05T02:41:44.426Z,98281.25
2022-10-05T02:44:50.315Z,98277.56
2022-10-05T02:47:41.928Z,98272.25
2022-10-05T02:50:26.923Z,98281.72
2022-10-05T02:53:15.635Z,98281.13
2022-10-05T02:56:08.813Z,98291.88
2022-10-05T02:58:51.494Z,98284.22
2022-10-05T03:01:31.759Z,98296.34
2022-10-05T03:04:20.152Z,98292.19
2022-10-05T03:07:23.734Z,98291.53
2022-10-05T03:10:14.874Z,98290.56
2022-10-05T03:13:00.108Z,98292.34
2022-10-05T03:15:53.830Z,98293.38
2022-10-05T03:19:05.150Z,98287.72
2022-10-05T03:21:52.077Z,98285.09
2022-10-05T03:24:55.727Z,98293.56
2022-10-05T03:27:47.940Z,98298.69
2022-10-05T03:30:19.591Z,98292.31
2022-10-05T03:33:47.813Z,98290.41
2022-10-05T03:36:33.053Z,98286.88
2022-10-05T03:39:10.901Z,98286.44
2022-10-05T03:42:07.042Z,98283.50
2022-10-05T03:45:07.615Z,98288.72
2022-10-05T03:48:03.637Z,98300.97
2022-10-05T03:50:48.134Z,98299.78
2022-10-05T03:53:29.883Z,98303.25
2022-10-05T03:56:07.320Z,98306.06
2022-10-05T03:58:49.849Z,98317.97
2022-10-05T04:01:22.428Z,98322.38
2022-10-05T04:04:04.146Z,98324.56
2022-10-05T04:06:34.966Z,98323.81
2022-10-05T04:09:27.970Z,98325.06
2022-10-05T04:12:00.985Z,98316.19
2022-10-05T04:14:34.422Z,98318.91
2022-10-05T04:17:10.567Z,98314.56
2022-10-05T04:19:59.986Z,98317.00
2022-10-05T04:22:40.898Z,98318.69
2022-10-05T04:25:28.666Z,98316.69
2022-10-05T04:28:06.476Z,98310.03
2022-10-05T04:30:34.879Z,98313.47
2022-10-05T04:33:01.948Z,98308.97
2022-10-05T04:35:50.178Z,98303.84
2022-10-05T04:38:55.382Z,98313.97
2022-10-05T04:41:52.154Z,98315.00
2022-10-05T04:44:47.883Z,98310.94
2022-10-05T04:47:55.102Z,98307.69
2022-10-05T04:50:49.507Z,98315.41
2022-10-05T04:53:44.437Z,98311.81
2022-10-05T04:56:32.698Z,98321.19
2022-10-05T04:59:54.148Z,98324.88
2022-10-05T05:03:05.253Z,98320.38
2022-10-05T05:06:18.313Z,98322.44
2022-10-05T05:09:05.920Z,98322.59
2022-10-05T05:12:07.775Z,98316.63
2022-10-05T05:15:07.050Z,98316.91
2022-10-05T05:17:47.019Z,98319.44
2022-10-05T05:20:39.230Z,98321.91
2022-10-05T05:23:15.223Z,98319.78
2022-10-05T05:26:02.660Z,98320.00
2022-10-05T05:28:53.896Z,98330.88
2022-10-05T05:31:33.316Z,98327.72
2022-10-05T05:34:31.256Z,98329.19
2022-10-05T05:37:32.642Z,98337.25
2022-10-05T05:40:36.238Z,98345.56
2022-10-05T05:43:16.790Z,98351.28
2022-10-05T05:45:57.831Z,98364.56
2022-10-05T05:48:46.631Z,98370.66
2022-10-05T05:51:19.272Z,98362.00
2022-10-05T05:53:48.098Z,98367.16
2022-10-05T05:56:20.697Z,98361.13
2022-10-05T05:58:50.817Z,98355.63
2022-10-05T06:01:52.563Z,98348.81
2022-10-05T06:04:25.056Z,98362.81
2022-10-05T06:06:54.307Z,98363.56
2022-10-05T06:09:41.877Z,98366.94
2022-10-05T06:12:27.488Z,98360.16
2022-10-05T06:15:20.299Z,98368.47
2022-10-05T06:17:55.084Z,98371.09
2022-10-05T06:20:35.585Z,98360.59
2022-10-05T06:23:07.534Z,98372.72
2022-10-05T06:26:10.812Z,98367.84
2022-10-05T06:28:38.335Z,98369.94
2022-10-05T06:31:29.736Z,98371.09
2022-10-05T06:34:18.478Z,98367.47
2022-10-05T06:37:07.254Z,98362.81
2022-10-05T06:40:23.703Z,98373.50
2022-10-05T06:43:43.304Z,98372.34
2022-10-05T06:46:23.669Z,98380.13
2022-10-05T06:49:13.051Z,98376.25
2022-10-05T06:51:55.640Z,98388.91
2022-10-05T06:55:20.983Z,98390.47
2022-10-05T06:57:59.430Z,98395.09
2022-10-05T07:00:44.049Z,98390.81
2022-10-05T07:03:20.846Z,98395.41
2022-10-05T07:06:12.750Z,98397.38
2022-10-05T07:09:00.769Z,98391.84
2022-10-05T07:12:05.395Z,98398.34
2022-10-05T07:14:52.116Z,98391.72
2022-10-05T07:17:44.200Z,98396.03
2022-10-05T07:20:48.258Z,98394.88
2022-10-05T07:24:04.615Z,98386.66
2022-10-05T07:26:42.156Z,98389.97
2022-10-05T07:29:59.352Z,98390.06
2022-10-05T07:33:14.133Z,98394.47
2022-10-05T07:36:34.947Z,98389.94
2022-10-05T07:39:14.447Z,98392.66
2022-10-05T07:41:52.970Z,98381.63
2022-10-05T07:44:53.904Z,98379.44
2022-10-05T07:47:37.371Z,98376.28
2022-10-05T07:50:38.834Z,98369.06
2022-10-05T07:53:15.414Z,98363.75
2022-10-05T07:55:50.152Z,98372.34
2022-10-05T07:58:59.487Z,98359.28
2022-10-05T08:01:33.502Z,98363.59
2022-10-05T08:04:25.415Z,98362.53
2022-10-05T08:07:01.878Z,98359.63
2022-10-05T08:10:15.581Z,98361.31
2022-10-05T08:13:30.565Z,98361.91
2022-10-05T08:16:06.636Z,98355.03
2022-10-05T08:18:59.558Z,98361.38
2022-10-05T08:21:35.772Z,98360.38
2022-10-05T08:24:41.282Z,98359.88
2022-10-05T08:27:46.909Z,98365.41
2022-10-05T08:30:16.266Z,98367.47
2022-10-05T08:33:09.940Z,98368.63
2022-10-05T08:35:46.302Z,98369.41
2022-10-05T08:38:28.814Z,98367.97
2022-10-05T08:41:49.606Z,98367.78
2022-10-05T08:44:55.114Z,98360.34
2022-10-05T08:47:50.411Z,98365.47
2022-10-05T08:50:39.736Z,98360.94
2022-10-05T08:53:23.663Z,98365.31
2022-10-05T08:56:29.372Z,98360.59
2022-10-05T08:59:40.624Z,98362.44
2022-10-05T09:02:21.497Z,98358.44
2022-10-05T09:05:03.821Z,98351.31
2022-10-05T09:08:09.355Z,98360.25
2022-10-05T09:11:10.930Z,98363.72
2022-10-05T09:14:23.874Z,98364.06
2022-10-05T09:17:20.226Z,98349.63
2022-10-05T09:20:12.281Z,98355.09
2022-10-05T09:23:25.093Z,98351.97
2022-10-05T09:26:03.810Z,98353.94
2022-10-05T09:29:19.499Z,98348.84
2022-10-05T09:32:25.248Z,98358.13
2022-10-05T09:35:22.242Z,98358.19
2022-10-05T09:38:30.258Z,98355.63
2022-10-05T09:41:43.230Z,98349.69
2022-10-05T10:21:09.532Z,98336.59
2022-10-05T10:24:40.899Z,98332.66
2022-10-05T10:27:51.586Z,98329.16
2022-10-05T10:30:54.471Z,98336.22
2022-10-05T10:33:56.263Z,98332.31
2022-10-05T10:37:11.544Z,98333.19
2022-10-05T10:40:21.592Z,98332.88
2022-10-05T10:43:23.037Z,98330.69
2022-10-05T10:46:28.482Z,98326.81
2022-10-05T10:49:40.098Z,98325.03
2022-10-05T10:52:14.483Z,98325.59
2022-10-05T10:55:25.191Z,98324.16
2022-10-05T10:58:28.464Z,98319.84
2022-10-05T11:01:37.000Z,98327.22
2022-10-05T11:04:35.285Z,98328.97
2022-10-05T11:07:45.720Z,98332.22
2022-10-05T11:10:46.432Z,98329.72
2022-10-05T11:13:31.703Z,98329.63
2022-10-05T11:16:35.551Z,98327.66
2022-10-05T11:20:05.032Z,98323.63
2022-10-05T11:22:57.775Z,98314.69
2022-10-05T11:25:48.877Z,98313.72
2022-10-05T11:29:10.637Z,98311.81
2022-10-05T11:32:17.327Z,98310.16
2022-10-05T11:35:26.094Z,98310.47
2022-10-05T11:38:31.598Z,98303.84
2022-10-05T11:41:22.722Z,98302.53
2022-10-05T11:44:51.958Z,98297.53
2022-10-05T11:50:39.843Z,98298.31
2022-10-05T11:56:38.253Z,98299.66
2022-10-05T12:19:41.124Z,98278.84
2022-10-05T12:22:20.430Z,98278.84
2022-10-05T12:49:53.583Z,98259.97
2022-10-05T12:52:56.033Z,98257.38
2022-10-05T13:16:28.477Z,98244.59
2022-10-05T13:31:12.688Z,98229.97
2022-10-05T13:33:54.357Z,98221.38
2022-10-05T13:36:36.369Z,98228.06
2022-10-05T13:39:43.707Z,98218.78
2022-10-05T13:42:15.897Z,98224.88
2022-10-05T13:45:00.366Z,98222.13
2022-10-05T13:47:38.984Z,98228.34
2022-10-05T13:50:21.511Z,98225.16
2022-10-05T13:53:13.131Z,98217.91
2022-10-05T13:55:49.712Z,98214.28
2022-10-05T13:58:29.713Z,98220.09
2022-10-05T14:01:00.614Z,98219.09
2022-10-05T14:03:36.078Z,98213.00
2022-10-05T14:06:30.751Z,98216.91
2022-10-05T14:09:00.297Z,98220.50
2022-10-05T14:11:33.166Z,98221.38
2022-10-05T14:14:23.509Z,98215.16
2022-10-05T14:16:53.906Z,98217.31
2022-10-05T14:19:45.598Z,98217.16
2022-10-05T14:22:24.220Z,98215.28
2022-10-05T14:25:18.151Z,98207.19
2022-10-05T14:28:32.458Z,98205.72
2022-10-05T14:31:13.092Z,98208.47
2022-10-05T14:33:40.215Z,98214.72
2022-10-05T14:36:16.419Z,98211.34
2022-10-05T14:38:57.812Z,98217.00
2022-10-05T14:41:27.333Z,98211.94
2022-10-05T14:47:30.773Z,98204.38
2022-10-05T14:50:17.813Z,98205.84
2022-10-05T14:52:59.383Z,98209.72
2022-10-05T14:56:10.402Z,98201.03
2022-10-05T14:59:10.474Z,98195.22
2022-10-05T15:01:44.341Z,98194.19
2022-10-05T15:04:44.157Z,98190.28
2022-10-05T15:07:44.501Z,98184.47
2022-10-05T15:10:41.809Z,98192.44
2022-10-05T15:13:32.200Z,98193.56
2022-10-05T15:16:31.303Z,98196.19
2022-10-05T15:19:31.199Z,98182.50
2022-10-05T15:22:23.591Z,98180.91
2022-10-05T15:25:12.067Z,98183.66
2022-10-05T15:28:01.915Z,98178.72
2022-10-05T15:30:29.047Z,98178.59
2022-10-05T15:33:34.251Z,98185.22
2022-10-05T15:36:16.995Z,98182.75
2022-10-05T15:39:02.643Z,98179.69
2022-10-05T15:42:20.511Z,98182.84
2022-10-05T15:45:06.518Z,98185.88
2022-10-05T15:47:48.293Z,98184.09
2022-10-05T15:50:45.860Z,98175.56
2022-10-05T15:53:21.318Z,98178.72
2022-10-05T15:56:08.792Z,98184.63
2022-10-05T15:58:50.041Z,98175.34
2022-10-05T16:01:23.444Z,98184.03
2022-10-05T16:04:13.998Z,98185.16
2022-10-05T16:07:19.107Z,98177.50
2022-10-05T16:09:52.807Z,98182.50
2022-10-05T16:13:11.483Z,98188.66
2022-10-05T16:15:48.679Z,98190.78
2022-10-05T16:18:36.432Z,98183.94
2022-10-05T16:21:05.833Z,98181.28
2022-10-05T16:24:40.862Z,98177.34
2022-10-05T16:27:22.510Z,98181.78
2022-10-05T16:30:02.122Z,98180.00
2022-10-05T16:32:57.990Z,98178.25
2022-10-05T16:35:44.317Z,98191.06
2022-10-05T16:38:38.682Z,98193.47
2022-10-05T16:41:21.038Z,98191.13
2022-10-05T16:44:13.526Z,98188.47
2022-10-05T16:46:49.410Z,98197.25
2022-10-05T16:49:51.401Z,98187.81
2022-10-05T16:52:21.330Z,98190.78
2022-10-05T16:54:53.870Z,98202.88
2022-10-05T16:57:25.102Z,98206.03
2022-10-05T17:00:15.927Z,98205.13
2022-10-05T17:03:13.270Z,98213.94
2022-10-05T17:06:05.625Z,98220.41
2022-10-05T17:09:09.505Z,98222.06
2022-10-05T17:12:15.044Z,98223.22
2022-10-05T17:15:29.757Z,98223.41
2022-10-05T17:18:30.296Z,98224.94
2022-10-05T17:21:21.451Z,98228.78
2022-10-05T17:23:55.929Z,98228.63
2022-10-05T17:29:32.168Z,98242.91
2022-10-05T17:32:30.160Z,98238.53
2022-10-05T17:35:18.929Z,98236.03
2022-10-05T17:50:21.689Z,98249.13
2022-10-05T17:53:40.197Z,98250.28
2022-10-05T17:56:07.039Z,98244.59
2022-10-05T17:59:01.191Z,98255.38
2022-10-05T18:01:36.381Z,98248.63
2022-10-05T18:04:38.211Z,98257.03
2022-10-05T18:07:17.935Z,98253.41
2022-10-05T18:10:19.349Z,98257.63
2022-10-05T18:13:18.057Z,98260.91
2022-10-05T18:15:48.699Z,98260.03
2022-10-05T18:18:35.759Z,98250.16
2022-10-05T18:21:30.533Z,98259.31
2022-10-05T18:24:26.946Z,98263.91
2022-10-05T18:27:26.470Z,98260.25
2022-10-05T18:30:06.465Z,98269.59
2022-10-05T18:33:23.305Z,98267.56
2022-10-05T18:36:38.096Z,98267.41
2022-10-05T18:39:29.015Z,98267.94
2022-10-05T18:42:17.271Z,98268.88
2022-10-05T18:44:49.400Z,98263.38
2022-10-05T18:48:12.854Z,98270.16
2022-10-05T18:51:17.892Z,98270.69
2022-10-05T18:54:38.504Z,98272.53
2022-10-05T18:58:03.855Z,98268.34
2022-10-05T19:01:00.162Z,98269.63
2022-10-05T19:04:13.360Z,98264.31
2022-10-05T19:06:50.449Z,98270.19
2022-10-05T19:35:23.514Z,98306.97
2022-10-05T19:38:26.256Z,98308.06
2022-10-05T19:41:17.665Z,98316.44
2022-10-05T19:44:35.563Z,98314.47
2022-10-05T19:47:43.787Z,98317.72
2022-10-05T19:50:34.427Z,98324.84
2022-10-05T19:53:11.227Z,98324.28
2022-10-05T19:55:41.764Z,98325.22
2022-10-05T19:58:28.494Z,98333.22
2022-10-05T20:01:00.657Z,98338.19
2022-10-05T20:03:32.389Z,98340.91
2022-10-05T20:06:04.275Z,98340.19
2022-10-05T20:08:39.462Z,98347.84
2022-10-05T20:11:11.980Z,98343.81
2022-10-05T20:13:42.513Z,98351.28
2022-10-05T20:16:49.131Z,98349.84
2022-10-05T20:19:52.227Z,98349.13
2022-10-05T20:22:49.022Z,98351.13
2022-10-05T20:25:18.307Z,98361.50
2022-10-05T20:27:53.194Z,98362.81
2022-10-05T20:30:21.290Z,98363.34
2022-10-05T20:32:59.548Z,98367.34
2022-10-05T20:35:30.425Z,98370.66
2022-10-05T20:37:59.728Z,98370.44
2022-10-05T20:40:29.124Z,98370.28
2022-10-05T20:42:56.484Z,98372.09
2022-10-05T20:45:23.089Z,98377.72
2022-10-05T20:47:51.009Z,98392.16
2022-10-05T20:50:17.896Z,98390.69
2022-10-05T20:52:44.677Z,98392.53
2022-10-05T20:55:12.337Z,98388.66
2022-10-05T20:57:42.073Z,98399.25
2022-10-05T21:00:13.016Z,98388.13
2022-10-05T21:02:39.869Z,98395.41
2022-10-05T21:05:07.786Z,98399.78
2022-10-05T21:07:34.644Z,98398.88
2022-10-05T21:10:02.343Z,98398.88
2022-10-05T21:12:29.327Z,98416.34
2022-10-05T21:14:56.145Z,98407.25
2022-10-05T21:17:22.697Z,98415.47
2022-10-05T21:19:49.303Z,98410.50
2022-10-05T21:22:15.967Z,98418.19
2022-10-05T21:24:42.564Z,98419.28
2022-10-05T21:27:10.199Z,98420.69
2022-10-05T21:29:37.144Z,98418.31
2022-10-05T21:32:08.419Z,98421.56
2022-10-05T21:34:35.396Z,98436.00
2022-10-05T21:37:02.171Z,98425.44
2022-10-05T21:39:28.983Z,98431.44
2022-10-05T21:41:56.274Z,98425.22
2022-10-05T21:44:22.870Z,98422.69
2022-10-05T21:46:49.634Z,98432.53
2022-10-05T21:49:18.960Z,98425.06
2022-10-05T21:51:47.838Z,98427.03
2022-10-05T21:54:19.587Z,98432.72
2022-10-05T21:56:49.945Z,98432.72
2022-10-05T21:59:20.319Z,98422.84
2022-10-05T22:01:47.211Z,98422.84
2022-10-05T22:04:15.063Z,98424.66
2022-10-05T22:06:41.765Z,98431.75
2022-10-05T22:09:08.329Z,98431.22
2022-10-05T22:11:35.122Z,98433.97
2022-10-05T22:14:04.695Z,98434.88
2022-10-05T22:16:34.427Z,98438.53
2022-10-05T22:19:06.398Z,98426.66
2022-10-05T22:21:37.919Z,98443.28
2022-10-05T22:24:05.181Z,98438.50
2022-10-05T22:26:32.090Z,98439.00
2022-10-05T22:28:58.881Z,98442.84
2022-10-05T22:31:25.651Z,98450.63
2022-10-05T22:33:52.281Z,98439.63
2022-10-05T22:36:19.652Z,98442.53
2022-10-05T22:38:47.587Z,98451.25
2022-10-05T22:41:15.356Z,98441.06
2022-10-05T22:43:42.072Z,98445.00
2022-10-05T22:46:12.910Z,98444.28
2022-10-05T22:48:40.258Z,98446.63
2022-10-05T22:51:08.847Z,98448.97
2022-10-05T22:53:35.897Z,98448.63
2022-10-05T22:56:10.888Z,98442.38
2022-10-05T22:58:38.389Z,98460.75
2022-10-05T23:01:07.415Z,98449.84
2022-10-05T23:03:34.586Z,98449.84
2022-10-05T23:06:04.426Z,98448.16
2022-10-05T23:08:33.092Z,98467.72
2022-10-05T23:11:08.295Z,98462.59
2022-10-05T23:13:34.833Z,98462.59
2022-10-05T23:16:15.587Z,98473.50
2022-10-05T23:18:43.443Z,98482.03
2022-10-05T23:21:11.610Z,98475.81
2022-10-05T23:23:40.745Z,98474.75
2022-10-05T23:26:10.484Z,98482.22
2022-10-05T23:28:39.382Z,98473.50
2022-10-05T23:31:08.073Z,98486.97
2022-10-05T23:33:35.462Z,98479.50
2022-10-05T23:36:12.401Z,98487.28
2022-10-05T23:38:39.004Z,98493.81
2022-10-05T23:41:06.306Z,98488.97
2022-10-05T23:43:33.837Z,98495.69
2022-10-05T23:46:01.215Z,98501.16
2022-10-05T23:48:28.317Z,98503.28
2022-10-05T23:50:55.780Z,98504.34
2022-10-05T23:53:23.395Z,98511.09
2022-10-05T23:55:53.781Z,98508.16
2022-10-05T23:58:21.644Z,98506.91
